sensor_id;sensor_type;location;lat;lon;timestamp;P1;durP1;ratioP1;P2;durP2;ratioP2
57307;SDS011;43152;50.968;18.214;2024-03-08T00:00:18;53.50;;;17.90;;
57307;SDS011;43152;50.968;18.214;2024-03-08T00:10:06;37.70;;;18.00;;
57307;SDS011;43152;50.968;18.214;2024-03-08T00:19:59;40.00;;;16.90;;
57307;SDS011;43152;50.968;18.214;2024-03-08T00:29:41;39.20;;;16.00;;
57307;SDS011;43152;50.968;18.214;2024-03-08T00:39:29;39.00;;;15.30;;
57307;SDS011;43152;50.968;18.214;2024-03-08T00:49:11;45.20;;;17.90;;
57307;SDS011;43152;50.968;18.214;2024-03-08T00:58:54;36.00;;;17.00;;
57307;SDS011;43152;50.968;18.214;2024-03-08T01:08:37;27.20;;;9.30;;
57307;SDS011;43152;50.968;18.214;2024-03-08T01:18:25;38.00;;;17.20;;
57307;SDS011;43152;50.968;18.214;2024-03-08T01:28:09;37.90;;;15.90;;
57307;SDS011;43152;50.968;18.214;2024-03-08T01:37:53;63.00;;;18.30;;
57307;SDS011;43152;50.968;18.214;2024-03-08T01:47:36;38.00;;;15.60;;
57307;SDS011;43152;50.968;18.214;2024-03-08T01:57:27;51.30;;;21.90;;
57307;SDS011;43152;50.968;18.214;2024-03-08T02:07:12;42.80;;;17.60;;
57307;SDS011;43152;50.968;18.214;2024-03-08T02:17:00;53.90;;;20.00;;
57307;SDS011;43152;50.968;18.214;2024-03-08T02:26:43;45.40;;;16.30;;
57307;SDS011;43152;50.968;18.214;2024-03-08T02:36:25;50.30;;;20.00;;
57307;SDS011;43152;50.968;18.214;2024-03-08T02:46:09;42.40;;;17.00;;
57307;SDS011;43152;50.968;18.214;2024-03-08T02:55:52;51.20;;;21.00;;
57307;SDS011;43152;50.968;18.214;2024-03-08T03:05:35;39.40;;;20.80;;
57307;SDS011;43152;50.968;18.214;2024-03-08T03:15:18;33.20;;;16.70;;
57307;SDS011;43152;50.968;18.214;2024-03-08T03:25:06;54.50;;;26.30;;
57307;SDS011;43152;50.968;18.214;2024-03-08T03:35:12;52.70;;;21.00;;
57307;SDS011;43152;50.968;18.214;2024-03-08T03:44:59;49.10;;;21.80;;
57307;SDS011;43152;50.968;18.214;2024-03-08T03:54:44;55.20;;;21.10;;
57307;SDS011;43152;50.968;18.214;2024-03-08T04:04:26;58.40;;;23.30;;
57307;SDS011;43152;50.968;18.214;2024-03-08T04:14:13;41.20;;;18.60;;
57307;SDS011;43152;50.968;18.214;2024-03-08T04:23:55;46.90;;;19.80;;
57307;SDS011;43152;50.968;18.214;2024-03-08T04:33:38;47.60;;;20.30;;
57307;SDS011;43152;50.968;18.214;2024-03-08T04:43:21;67.20;;;23.70;;
57307;SDS011;43152;50.968;18.214;2024-03-08T04:53:06;71.00;;;25.40;;
57307;SDS011;43152;50.968;18.214;2024-03-08T05:02:50;51.10;;;21.40;;
57307;SDS011;43152;50.968;18.214;2024-03-08T05:12:37;48.40;;;18.50;;
57307;SDS011;43152;50.968;18.214;2024-03-08T05:22:21;53.10;;;21.40;;
57307;SDS011;43152;50.968;18.214;2024-03-08T05:32:03;50.40;;;19.40;;
57307;SDS011;43152;50.968;18.214;2024-03-08T05:41:46;50.20;;;18.60;;
57307;SDS011;43152;50.968;18.214;2024-03-08T05:51:32;67.20;;;21.80;;
57307;SDS011;43152;50.968;18.214;2024-03-08T06:01:25;52.50;;;18.70;;
57307;SDS011;43152;50.968;18.214;2024-03-08T06:11:17;52.70;;;20.10;;
57307;SDS011;43152;50.968;18.214;2024-03-08T06:21:04;47.30;;;21.20;;
57307;SDS011;43152;50.968;18.214;2024-03-08T06:30:51;43.50;;;16.60;;
57307;SDS011;43152;50.968;18.214;2024-03-08T06:40:33;41.80;;;18.00;;
57307;SDS011;43152;50.968;18.214;2024-03-08T06:50:16;51.10;;;20.60;;
57307;SDS011;43152;50.968;18.214;2024-03-08T07:00:04;31.30;;;14.30;;
57307;SDS011;43152;50.968;18.214;2024-03-08T07:09:49;46.80;;;16.80;;
57307;SDS011;43152;50.968;18.214;2024-03-08T07:19:34;36.80;;;15.50;;
57307;SDS011;43152;50.968;18.214;2024-03-08T07:48:25;37.60;;;16.50;;
57307;SDS011;43152;50.968;18.214;2024-03-08T07:58:08;30.90;;;14.60;;
57307;SDS011;43152;50.968;18.214;2024-03-08T08:07:53;29.90;;;13.80;;
57307;SDS011;43152;50.968;18.214;2024-03-08T08:25:05;30.20;;;13.90;;
57307;SDS011;43152;50.968;18.214;2024-03-08T08:34:50;30.40;;;11.60;;
57307;SDS011;43152;50.968;18.214;2024-03-08T08:44:34;39.30;;;14.70;;
57307;SDS011;43152;50.968;18.214;2024-03-08T08:54:17;24.60;;;10.10;;
57307;SDS011;43152;50.968;18.214;2024-03-08T09:04:07;53.30;;;20.80;;
57307;SDS011;43152;50.968;18.214;2024-03-08T09:13:53;46.60;;;19.50;;
57307;SDS011;43152;50.968;18.214;2024-03-08T09:23:35;38.80;;;16.60;;
57307;SDS011;43152;50.968;18.214;2024-03-08T09:33:20;38.10;;;15.80;;
57307;SDS011;43152;50.968;18.214;2024-03-08T09:43:08;26.00;;;9.40;;
57307;SDS011;43152;50.968;18.214;2024-03-08T09:52:59;40.00;;;14.50;;
57307;SDS011;43152;50.968;18.214;2024-03-08T10:03:03;38.40;;;14.00;;
57307;SDS011;43152;50.968;18.214;2024-03-08T10:12:49;30.40;;;13.10;;
57307;SDS011;43152;50.968;18.214;2024-03-08T10:22:45;44.30;;;13.20;;
57307;SDS011;43152;50.968;18.214;2024-03-08T10:32:35;35.90;;;17.00;;
57307;SDS011;43152;50.968;18.214;2024-03-08T10:42:39;30.10;;;12.70;;
57307;SDS011;43152;50.968;18.214;2024-03-08T10:52:35;33.40;;;13.20;;
57307;SDS011;43152;50.968;18.214;2024-03-08T11:02:20;26.30;;;12.60;;
57307;SDS011;43152;50.968;18.214;2024-03-08T11:12:35;30.20;;;12.70;;
57307;SDS011;43152;50.968;18.214;2024-03-08T11:22:33;13.60;;;6.90;;
57307;SDS011;43152;50.968;18.214;2024-03-08T11:32:38;24.90;;;10.90;;
57307;SDS011;43152;50.968;18.214;2024-03-08T11:42:30;48.20;;;13.70;;
57307;SDS011;43152;50.968;18.214;2024-03-08T11:59:35;28.30;;;13.10;;
57307;SDS011;43152;50.968;18.214;2024-03-08T12:09:26;26.50;;;10.80;;
57307;SDS011;43152;50.968;18.214;2024-03-08T12:19:09;26.50;;;12.10;;
57307;SDS011;43152;50.968;18.214;2024-03-08T12:29:21;26.00;;;9.90;;
57307;SDS011;43152;50.968;18.214;2024-03-08T12:39:10;40.20;;;11.40;;
57307;SDS011;43152;50.968;18.214;2024-03-08T12:49:10;21.60;;;9.40;;
57307;SDS011;43152;50.968;18.214;2024-03-08T12:58:57;25.00;;;10.70;;
57307;SDS011;43152;50.968;18.214;2024-03-08T13:08:44;11.80;;;6.50;;
57307;SDS011;43152;50.968;18.214;2024-03-08T13:18:34;20.90;;;8.40;;
57307;SDS011;43152;50.968;18.214;2024-03-08T13:28:22;20.50;;;8.50;;
57307;SDS011;43152;50.968;18.214;2024-03-08T13:38:06;29.90;;;11.80;;
57307;SDS011;43152;50.968;18.214;2024-03-08T13:47:52;23.10;;;10.80;;
57307;SDS011;43152;50.968;18.214;2024-03-08T13:57:49;26.10;;;12.20;;
57307;SDS011;43152;50.968;18.214;2024-03-08T14:07:41;26.30;;;12.50;;
57307;SDS011;43152;50.968;18.214;2024-03-08T14:17:26;32.40;;;11.90;;
57307;SDS011;43152;50.968;18.214;2024-03-08T14:27:11;16.90;;;8.00;;
57307;SDS011;43152;50.968;18.214;2024-03-08T14:36:59;29.30;;;11.00;;
57307;SDS011;43152;50.968;18.214;2024-03-08T14:46:44;21.30;;;11.40;;
57307;SDS011;43152;50.968;18.214;2024-03-08T15:03:50;23.90;;;11.00;;
57307;SDS011;43152;50.968;18.214;2024-03-08T15:13:38;22.20;;;8.00;;
57307;SDS011;43152;50.968;18.214;2024-03-08T15:23:34;20.60;;;8.50;;
57307;SDS011;43152;50.968;18.214;2024-03-08T15:33:32;21.70;;;9.40;;
57307;SDS011;43152;50.968;18.214;2024-03-08T15:43:20;25.80;;;9.80;;
57307;SDS011;43152;50.968;18.214;2024-03-08T15:53:04;30.20;;;9.80;;
57307;SDS011;43152;50.968;18.214;2024-03-08T16:03:12;20.70;;;7.90;;
57307;SDS011;43152;50.968;18.214;2024-03-08T16:13:16;26.90;;;8.70;;
57307;SDS011;43152;50.968;18.214;2024-03-08T16:23:05;27.10;;;9.10;;
57307;SDS011;43152;50.968;18.214;2024-03-08T16:32:49;24.70;;;10.30;;
57307;SDS011;43152;50.968;18.214;2024-03-08T16:42:45;19.50;;;7.00;;
57307;SDS011;43152;50.968;18.214;2024-03-08T16:52:36;23.90;;;10.10;;
57307;SDS011;43152;50.968;18.214;2024-03-08T17:02:22;22.90;;;7.90;;
57307;SDS011;43152;50.968;18.214;2024-03-08T17:12:08;21.20;;;9.40;;
57307;SDS011;43152;50.968;18.214;2024-03-08T17:21:59;22.10;;;8.30;;
57307;SDS011;43152;50.968;18.214;2024-03-08T17:31:47;31.50;;;10.50;;
57307;SDS011;43152;50.968;18.214;2024-03-08T17:41:44;25.60;;;9.00;;
57307;SDS011;43152;50.968;18.214;2024-03-08T17:51:39;23.80;;;9.20;;
57307;SDS011;43152;50.968;18.214;2024-03-08T18:01:23;28.80;;;12.90;;
57307;SDS011;43152;50.968;18.214;2024-03-08T18:11:08;29.60;;;13.80;;
57307;SDS011;43152;50.968;18.214;2024-03-08T18:20:54;34.50;;;15.00;;
57307;SDS011;43152;50.968;18.214;2024-03-08T18:30:38;48.30;;;17.70;;
57307;SDS011;43152;50.968;18.214;2024-03-08T18:40:25;27.60;;;12.50;;
57307;SDS011;43152;50.968;18.214;2024-03-08T18:50:15;34.70;;;13.80;;
57307;SDS011;43152;50.968;18.214;2024-03-08T19:00:19;69.00;;;23.00;;
57307;SDS011;43152;50.968;18.214;2024-03-08T19:10:13;39.50;;;14.90;;
57307;SDS011;43152;50.968;18.214;2024-03-08T19:20:13;38.90;;;9.00;;
57307;SDS011;43152;50.968;18.214;2024-03-08T19:30:05;43.70;;;17.90;;
57307;SDS011;43152;50.968;18.214;2024-03-08T19:39:51;47.60;;;14.80;;
57307;SDS011;43152;50.968;18.214;2024-03-08T19:49:44;66.50;;;20.50;;
57307;SDS011;43152;50.968;18.214;2024-03-08T19:59:35;45.20;;;20.40;;
57307;SDS011;43152;50.968;18.214;2024-03-08T20:09:28;42.80;;;15.60;;
57307;SDS011;43152;50.968;18.214;2024-03-08T20:19:13;72.80;;;24.80;;
57307;SDS011;43152;50.968;18.214;2024-03-08T20:28:55;70.00;;;26.00;;
57307;SDS011;43152;50.968;18.214;2024-03-08T20:38:42;64.70;;;23.20;;
57307;SDS011;43152;50.968;18.214;2024-03-08T20:48:33;73.90;;;20.60;;
57307;SDS011;43152;50.968;18.214;2024-03-08T20:58:22;65.10;;;18.90;;
57307;SDS011;43152;50.968;18.214;2024-03-08T21:08:13;59.40;;;18.40;;
57307;SDS011;43152;50.968;18.214;2024-03-08T21:18:00;54.40;;;19.40;;
57307;SDS011;43152;50.968;18.214;2024-03-08T21:27:44;43.30;;;16.70;;
57307;SDS011;43152;50.968;18.214;2024-03-08T21:37:34;58.00;;;22.30;;
57307;SDS011;43152;50.968;18.214;2024-03-08T21:47:21;46.70;;;21.20;;
57307;SDS011;43152;50.968;18.214;2024-03-08T21:57:07;81.20;;;27.30;;
57307;SDS011;43152;50.968;18.214;2024-03-08T22:06:54;53.50;;;22.50;;
57307;SDS011;43152;50.968;18.214;2024-03-08T22:16:40;44.20;;;19.00;;
57307;SDS011;43152;50.968;18.214;2024-03-08T22:26:23;56.40;;;21.00;;
57307;SDS011;43152;50.968;18.214;2024-03-08T22:36:09;44.50;;;18.60;;
57307;SDS011;43152;50.968;18.214;2024-03-08T22:45:57;45.00;;;16.00;;
57307;SDS011;43152;50.968;18.214;2024-03-08T22:55:40;32.70;;;14.40;;
57307;SDS011;43152;50.968;18.214;2024-03-08T23:21:29;65.70;;;21.70;;
57307;SDS011;43152;50.968;18.214;2024-03-08T23:31:13;46.50;;;15.00;;
57307;SDS011;43152;50.968;18.214;2024-03-08T23:41:00;46.00;;;16.10;;
57307;SDS011;43152;50.968;18.214;2024-03-08T23:50:43;38.70;;;13.40;;
